Time;durP1;ratioP1;P1;durP2;ratioP2;P2;SDS_P1;SDS_P2;PMS_P1;PMS_P2;Temp;Humidity;BMP_temperature;BMP_pressure;BME280_temperature;BME280_humidity;BME280_pressure;Samples;Min_cycle;Max_cycle;Signal;HPM_P1;HPM_P2
2023/08/21 00:00:55;;;;;;;78.37;18.57;;;23.20;72.80;;;;;;5022583;28;20458;-79
2023/08/21 00:03:22;;;;;;;80.17;19.20;;;23.10;73.80;;;;;;5022573;28;20184;-79
2023/08/21 00:05:47;;;;;;;77.20;16.47;;;23.20;72.30;;;;;;5022449;28;20212;-79
2023/08/21 00:08:13;;;;;;;75.03;15.20;;;23.10;74.00;;;;;;5039808;28;20380;-79
2023/08/21 00:10:39;;;;;;;75.77;16.83;;;23.10;73.30;;;;;;5040130;28;20217;-79
2023/08/21 00:13:05;;;;;;;80.30;18.20;;;23.10;74.30;;;;;;5040271;28;20169;-79
2023/08/21 00:15:31;;;;;;;77.13;17.77;;;23.10;71.10;;;;;;5039489;28;20228;-79
2023/08/21 00:17:56;;;;;;;76.63;17.83;;;23.10;73.20;;;;;;5022341;28;20415;-79
2023/08/21 00:20:22;;;;;;;80.40;17.10;;;23.10;73.80;;;;;;5039496;28;20192;-79
2023/08/21 00:22:48;;;;;;;77.07;16.30;;;23.00;75.50;;;;;;5040191;28;20165;-79
2023/08/21 00:25:13;;;;;;;77.27;17.20;;;23.00;75.00;;;;;;5021977;28;20204;-79
2023/08/21 00:27:39;;;;;;;79.50;15.63;;;22.90;78.20;;;;;;5039743;28;20177;-79
2023/08/21 00:30:05;;;;;;;78.37;15.90;;;22.90;82.20;;;;;;5039870;28;20185;-79
2023/08/21 00:32:31;;;;;;;76.77;16.17;;;22.90;81.70;;;;;;5021597;28;20173;-79
2023/08/21 00:34:57;;;;;;;80.47;15.57;;;22.90;81.10;;;;;;5039244;28;20973;-79
2023/08/21 00:37:23;;;;;;;76.70;17.03;;;23.00;79.60;;;;;;5039466;28;20170;-79
2023/08/21 00:39:48;;;;;;;78.70;16.40;;;23.00;79.40;;;;;;5039142;28;20692;-79
2023/08/21 00:42:14;;;;;;;77.73;15.30;;;23.00;77.40;;;;;;5021153;28;20419;-79
2023/08/21 00:44:40;;;;;;;75.90;15.63;;;22.90;78.60;;;;;;5039373;28;20552;-79
2023/08/21 00:47:06;;;;;;;76.60;15.63;;;22.90;79.20;;;;;;5039973;28;20157;-79
2023/08/21 00:49:32;;;;;;;80.20;16.03;;;22.90;80.60;;;;;;5039804;28;20189;-79
2023/08/21 00:51:59;;;;;;;78.30;15.17;;;22.90;82.50;;;;;;5038921;28;20416;-79
2023/08/21 00:54:24;;;;;;;76.97;12.73;;;22.80;85.60;;;;;;5038652;28;20409;-79
2023/08/21 00:56:52;;;;;;;77.97;15.70;;;22.80;84.20;;;;;;5020735;28;20466;-79
2023/08/21 00:59:19;;;;;;;77.00;15.57;;;22.80;86.30;;;;;;5039107;28;20280;-79
2023/08/21 01:01:45;;;;;;;77.40;14.77;;;22.80;86.10;;;;;;5038783;28;20428;-79
2023/08/21 01:04:11;;;;;;;76.60;14.90;;;22.80;85.10;;;;;;5038576;28;20408;-79
2023/08/21 01:06:37;;;;;;;76.67;14.90;;;22.80;83.40;;;;;;5108198;23;20495;-83
2023/08/21 01:09:15;;;;;;;77.90;14.60;;;22.80;86.30;;;;;;5040791;28;20491;-83
2023/08/21 01:11:44;;;;;;;80.10;13.97;;;22.80;84.90;;;;;;5022752;28;20411;-83
2023/08/21 01:14:36;;;;;;;77.73;14.93;;;22.70;88.20;;;;;;5040269;28;20384;-83
2023/08/21 01:17:05;;;;;;;79.37;14.17;;;22.70;87.80;;;;;;5022343;28;20446;-83
2023/08/21 01:19:35;;;;;;;76.93;13.47;;;22.70;85.10;;;;;;5022242;28;20417;-83
2023/08/21 01:22:01;;;;;;;76.53;14.10;;;22.70;84.40;;;;;;5039642;28;20383;-83
2023/08/21 01:24:30;;;;;;;81.60;14.70;;;22.70;86.20;;;;;;5021656;28;20882;-83
2023/08/21 01:26:56;;;;;;;76.17;13.60;;;22.60;83.30;;;;;;5038789;28;20839;-83
2023/08/21 01:29:21;;;;;;;79.07;14.60;;;22.60;84.30;;;;;;5039401;28;20462;-83
2023/08/21 01:31:54;;;;;;;79.07;13.93;;;22.60;83.30;;;;;;5040223;28;20237;-83
2023/08/21 01:34:21;;;;;;;76.87;14.83;;;22.50;84.50;;;;;;5039273;28;20391;-83
2023/08/21 01:36:47;;;;;;;76.03;12.30;;;22.50;85.50;;;;;;5039153;28;20406;-83
2023/08/21 01:39:13;;;;;;;78.20;14.77;;;22.50;85.20;;;;;;5039143;28;20431;-83
2023/08/21 01:41:41;;;;;;;76.03;13.23;;;22.40;86.20;;;;;;5039205;28;20404;-83
2023/08/21 01:44:06;;;;;;;75.93;13.97;;;22.40;87.50;;;;;;5021217;28;20413;-83
2023/08/21 01:46:32;;;;;;;76.80;14.83;;;22.30;90.70;;;;;;5021093;28;20412;-83
2023/08/21 01:48:57;;;;;;;74.73;15.60;;;22.30;90.50;;;;;;5038484;28;20161;-83
2023/08/21 01:51:26;;;;;;;78.00;16.10;;;22.30;90.10;;;;;;5039127;28;20217;-83
2023/08/21 01:53:52;;;;;;;77.03;16.33;;;22.30;90.40;;;;;;5039294;28;20532;-83
2023/08/21 01:56:17;;;;;;;76.93;16.40;;;22.30;90.20;;;;;;5038523;28;20482;-83
2023/08/21 01:58:43;;;;;;;77.17;16.80;;;22.30;90.10;;;;;;5038789;28;20192;-83
2023/08/21 02:01:09;;;;;;;77.07;16.53;;;22.30;90.20;;;;;;5021307;28;20248;-83
2023/08/21 02:03:34;;;;;;;76.37;15.70;;;22.30;90.60;;;;;;5038369;28;20204;-83
2023/08/21 02:06:00;;;;;;;82.90;15.60;;;22.30;91.00;;;;;;5021193;28;20201;-83
2023/08/21 02:08:32;;;;;;;77.23;15.13;;;22.30;91.20;;;;;;5038435;28;20247;-83
2023/08/21 02:10:58;;;;;;;83.67;18.77;;;22.30;90.60;;;;;;5021637;28;20196;-83
2023/08/21 02:13:23;;;;;;;79.80;15.87;;;22.30;89.80;;;;;;5039020;28;20403;-83
2023/08/21 02:15:49;;;;;;;76.73;15.30;;;22.30;89.40;;;;;;5038497;28;20688;-83
2023/08/21 02:18:15;;;;;;;80.60;13.97;;;22.20;88.70;;;;;;5038683;28;20162;-83
2023/08/21 02:20:41;;;;;;;76.90;12.77;;;22.20;88.70;;;;;;5021033;28;20246;-83
2023/08/21 02:23:06;;;;;;;76.70;15.90;;;22.20;89.30;;;;;;5038806;28;20169;-83
2023/08/21 02:25:32;;;;;;;75.87;12.23;;;22.20;88.50;;;;;;5038318;28;20575;-83
2023/08/21 02:27:58;;;;;;;74.30;12.60;;;22.20;87.40;;;;;;5038354;28;20168;-83
2023/08/21 02:30:27;;;;;;;76.70;13.70;;;22.20;84.80;;;;;;5037829;28;20784;-83
2023/08/21 02:32:53;;;;;;;74.80;12.50;;;22.20;85.00;;;;;;5038602;28;20161;-83
2023/08/21 02:35:20;;;;;;;77.47;12.07;;;22.10;84.70;;;;;;5020739;28;20412;-83
2023/08/21 02:37:46;;;;;;;76.70;13.23;;;22.10;82.50;;;;;;5038683;28;20834;-83
2023/08/21 02:40:11;;;;;;;75.03;13.30;;;22.10;84.20;;;;;;5020357;28;20440;-83
2023/08/21 02:42:37;;;;;;;75.93;13.50;;;22.10;85.10;;;;;;5021536;28;20173;-83
2023/08/21 02:45:07;;;;;;;77.63;13.90;;;22.00;85.30;;;;;;5023340;28;20560;-83
2023/08/21 02:47:38;;;;;;;78.77;14.67;;;22.00;86.30;;;;;;5024842;28;20397;-83
2023/08/21 02:50:06;;;;;;;76.50;13.87;;;22.00;87.20;;;;;;5042429;28;20416;-83
2023/08/21 02:52:32;;;;;;;75.87;16.77;;;22.00;87.30;;;;;;5041953;28;20886;-83
2023/08/21 02:54:58;;;;;;;77.27;18.07;;;22.00;89.80;;;;;;5041847;28;20482;-83
2023/08/21 02:57:25;;;;;;;76.30;16.67;;;21.90;90.60;;;;;;5042221;28;20400;-83
2023/08/21 02:59:51;;;;;;;77.00;16.57;;;21.90;91.20;;;;;;5042246;28;20430;-83
2023/08/21 03:02:17;;;;;;;78.13;16.30;;;22.00;90.40;;;;;;5042306;28;20835;-83
2023/08/21 03:04:43;;;;;;;76.37;15.47;;;22.00;90.40;;;;;;5042405;28;20193;-83
2023/08/21 03:07:09;;;;;;;77.90;17.37;;;22.00;90.10;;;;;;5042139;28;20412;-83
2023/08/21 03:09:36;;;;;;;75.17;15.27;;;22.00;90.50;;;;;;5024202;28;20227;-83
2023/08/21 03:12:01;;;;;;;78.27;14.70;;;22.00;88.80;;;;;;5024565;28;20256;-83
2023/08/21 03:14:27;;;;;;;75.33;16.50;;;22.00;88.40;;;;;;5042018;28;20447;-83
2023/08/21 03:16:53;;;;;;;77.70;15.77;;;22.00;89.10;;;;;;5042280;28;20529;-83
2023/08/21 03:19:18;;;;;;;77.17;15.27;;;22.00;90.20;;;;;;5041348;28;20552;-83
2023/08/21 03:21:44;;;;;;;75.50;11.20;;;22.10;86.90;;;;;;5041461;28;20184;-83
2023/08/21 03:24:10;;;;;;;75.57;12.50;;;22.10;85.10;;;;;;5023651;28;20580;-83
2023/08/21 03:26:35;;;;;;;75.37;14.70;;;22.10;83.80;;;;;;5041302;28;20248;-83
2023/08/21 03:29:01;;;;;;;74.07;12.87;;;22.00;85.10;;;;;;5023810;28;20196;-83
2023/08/21 03:31:27;;;;;;;75.17;14.23;;;22.00;85.60;;;;;;5041346;28;20197;-83
2023/08/21 03:33:52;;;;;;;75.80;13.70;;;22.00;83.90;;;;;;5041493;28;20212;-83
2023/08/21 03:36:19;;;;;;;77.33;13.70;;;22.00;84.30;;;;;;5041799;28;20166;-83
2023/08/21 03:38:45;;;;;;;74.93;13.33;;;21.90;86.10;;;;;;5023576;28;20200;-83
2023/08/21 03:41:11;;;;;;;73.57;12.63;;;21.80;87.30;;;;;;5041643;28;20404;-83
2023/08/21 03:43:37;;;;;;;74.10;13.07;;;21.80;87.10;;;;;;5041517;28;20412;-83
2023/08/21 03:46:03;;;;;;;75.50;14.40;;;21.80;87.20;;;;;;5041185;28;20540;-83
2023/08/21 03:48:29;;;;;;;75.83;15.20;;;21.80;87.30;;;;;;5023211;28;20419;-83
2023/08/21 03:50:55;;;;;;;73.67;14.20;;;21.80;86.80;;;;;;5041294;28;20491;-83
2023/08/21 03:53:20;;;;;;;75.73;16.00;;;21.70;86.30;;;;;;5041044;28;20566;-83
2023/08/21 03:55:46;;;;;;;76.60;16.73;;;21.70;87.10;;;;;;5040074;28;20166;-83
2023/08/21 03:58:13;;;;;;;80.37;18.40;;;21.70;87.10;;;;;;5040931;28;20259;-83
2023/08/21 04:00:39;;;;;;;84.67;18.87;;;21.60;89.80;;;;;;5040963;28;20192;-83
2023/08/21 04:03:04;;;;;;;80.13;18.87;;;21.70;90.30;;;;;;5022991;28;20475;-83
2023/08/21 04:05:30;;;;;;;79.33;16.17;;;21.70;89.70;;;;;;5022551;28;20197;-83
2023/08/21 04:07:56;;;;;;;77.63;15.80;;;21.60;87.80;;;;;;5040616;28;20213;-83
2023/08/21 04:10:21;;;;;;;77.07;19.37;;;21.60;88.50;;;;;;5040610;28;20280;-83
2023/08/21 04:12:47;;;;;;;77.03;16.40;;;21.50;90.00;;;;;;5022901;28;20170;-83
2023/08/21 04:15:13;;;;;;;77.70;15.20;;;21.50;89.20;;;;;;5022664;28;20173;-83
2023/08/21 04:17:39;;;;;;;79.43;16.10;;;21.60;88.20;;;;;;5022632;28;20184;-83
2023/08/21 04:20:05;;;;;;;76.50;15.40;;;21.50;89.70;;;;;;5040328;28;20193;-83
2023/08/21 04:22:42;;;;;;;76.97;17.07;;;21.50;89.00;;;;;;5022558;28;20208;-83
2023/08/21 04:25:08;;;;;;;77.53;18.30;;;21.50;88.50;;;;;;5024016;28;20439;-83
2023/08/21 04:27:34;;;;;;;80.93;18.57;;;21.40;87.80;;;;;;5040761;28;20413;-83
2023/08/21 04:29:59;;;;;;;75.60;15.47;;;21.40;88.60;;;;;;5022402;28;20236;-83
2023/08/21 04:32:25;;;;;;;74.30;16.03;;;21.40;86.10;;;;;;5042156;28;20165;-83
2023/08/21 04:34:51;;;;;;;76.40;18.97;;;21.40;87.80;;;;;;5022296;28;20208;-83
2023/08/21 04:37:17;;;;;;;75.30;17.37;;;21.40;89.20;;;;;;5040270;28;20471;-83
2023/08/21 04:39:42;;;;;;;76.77;20.47;;;21.30;90.10;;;;;;5040402;28;20216;-83
2023/08/21 04:42:08;;;;;;;78.83;21.27;;;21.30;89.70;;;;;;5040330;28;20254;-83
2023/08/21 04:44:34;;;;;;;78.20;24.93;;;21.30;90.60;;;;;;5022386;28;20204;-83
2023/08/21 04:47:23;;;;;;;82.67;34.53;;;21.20;91.80;;;;;;5022194;28;20536;-83
2023/08/21 04:49:52;;;;;;;78.23;21.37;;;21.20;91.90;;;;;;5022203;28;20194;-83
2023/08/21 04:52:18;;;;;;;79.37;27.80;;;21.20;92.00;;;;;;5022324;28;20450;-83
2023/08/21 04:54:44;;;;;;;85.47;36.90;;;21.20;92.00;;;;;;5022686;28;20783;-83
2023/08/21 04:57:10;;;;;;;80.97;27.13;;;21.20;91.90;;;;;;5021941;28;20506;-83
2023/08/21 04:59:36;;;;;;;81.70;32.00;;;21.20;92.40;;;;;;5021970;28;20239;-83
2023/08/21 05:02:03;;;;;;;82.23;35.37;;;21.10;93.00;;;;;;5040785;28;20173;-83
2023/08/21 05:04:28;;;;;;;88.53;37.73;;;21.20;93.10;;;;;;5039432;28;20482;-83
2023/08/21 05:06:54;;;;;;;84.03;37.97;;;21.20;93.30;;;;;;5021868;28;20442;-83
2023/08/21 05:09:20;;;;;;;90.63;41.57;;;21.20;94.10;;;;;;5039917;28;20200;-83
2023/08/21 05:11:45;;;;;;;85.57;42.17;;;21.20;94.30;;;;;;5039738;28;20408;-83
2023/08/21 05:14:11;;;;;;;87.20;39.53;;;21.20;94.40;;;;;;5039906;28;20170;-83
2023/08/21 05:16:37;;;;;;;87.00;41.03;;;21.30;93.70;;;;;;5043116;28;20180;-83
2023/08/21 05:19:06;;;;;;;82.90;33.97;;;21.30;93.90;;;;;;5024344;28;20189;-84
2023/08/21 05:21:34;;;;;;;87.77;36.10;;;21.30;94.20;;;;;;5042553;28;20244;-84
2023/08/21 05:24:00;;;;;;;86.67;43.30;;;21.20;94.50;;;;;;5043321;28;20407;-85
2023/08/21 05:26:26;;;;;;;87.27;44.83;;;21.30;94.80;;;;;;5021894;28;20428;-85
2023/08/21 05:28:51;;;;;;;87.10;39.77;;;21.30;94.60;;;;;;5038922;28;20253;-84
2023/08/21 05:31:17;;;;;;;88.07;42.77;;;21.30;94.80;;;;;;5038637;28;20176;-83
2023/08/21 05:33:43;;;;;;;82.90;37.23;;;21.40;95.10;;;;;;5038586;28;20169;-84
2023/08/21 05:37:03;;;;;;;88.23;43.43;;;21.40;95.00;;;;;;5038508;28;20158;-83
2023/08/21 05:39:29;;;;;;;86.60;41.63;;;21.40;95.20;;;;;;5024808;28;20252;-82
2023/08/21 05:41:55;;;;;;;84.70;38.63;;;21.40;95.90;;;;;;5024358;28;20420;-81
2023/08/21 05:44:21;;;;;;;86.13;44.63;;;21.50;96.00;;;;;;5042128;28;20656;-81
2023/08/21 05:46:46;;;;;;;87.20;42.83;;;21.50;96.50;;;;;;5042530;28;20168;-82
2023/08/21 05:49:12;;;;;;;87.77;43.47;;;21.50;96.90;;;;;;5043118;28;20185;-82
2023/08/21 05:51:38;;;;;;;86.50;47.40;;;21.60;95.80;;;;;;5044644;28;20220;-82
2023/08/21 05:54:03;;;;;;;85.77;45.93;;;21.60;97.00;;;;;;5043581;28;20596;-82
2023/08/21 05:56:29;;;;;;;88.67;50.87;;;21.60;98.00;;;;;;5043054;28;20169;-82
2023/08/21 05:58:55;;;;;;;89.67;44.27;;;21.60;99.10;;;;;;5044376;28;20185;-82
2023/08/21 06:01:20;;;;;;;86.77;47.17;;;21.70;97.70;;;;;;5044528;28;20176;-82
2023/08/21 06:03:46;;;;;;;88.03;47.50;;;21.80;97.40;;;;;;5045434;28;20176;-81
2023/08/21 06:06:12;;;;;;;90.40;47.40;;;21.80;99.90;;;;;;5027463;28;20237;-82
2023/08/21 06:08:38;;;;;;;86.90;40.07;;;21.80;99.30;;;;;;5044678;28;20192;-82
2023/08/21 06:11:03;;;;;;;91.20;48.87;;;21.90;97.90;;;;;;5044259;28;20209;-82
2023/08/21 06:13:30;;;;;;;83.87;39.30;;;21.90;97.30;;;;;;5044615;28;20411;-81
2023/08/21 06:15:56;;;;;;;84.90;36.50;;;21.90;97.40;;;;;;5044283;28;20169;-81
2023/08/21 06:18:27;;;;;;;82.67;36.73;;;22.00;95.40;;;;;;5044094;28;20414;-82
2023/08/21 06:20:55;;;;;;;88.90;38.37;;;21.90;96.90;;;;;;5044438;28;20186;-82
2023/08/21 06:23:21;;;;;;;83.17;34.90;;;21.90;97.40;;;;;;5025890;28;20965;-82
2023/08/21 06:25:53;;;;;;;87.40;41.83;;;22.00;96.10;;;;;;5022252;28;20452;-81
2023/08/21 06:28:19;;;;;;;88.27;42.73;;;21.90;96.90;;;;;;5022881;28;20400;-82
2023/08/21 06:30:45;;;;;;;87.70;40.17;;;21.90;98.00;;;;;;5040334;28;20427;-81
2023/08/21 06:33:10;;;;;;;86.10;40.97;;;21.90;97.70;;;;;;5041561;28;20215;-82
2023/08/21 06:35:37;;;;;;;85.43;38.97;;;22.00;98.10;;;;;;5040419;28;20166;-82
2023/08/21 06:38:03;;;;;;;88.70;44.23;;;22.00;99.30;;;;;;5023127;28;20173;-82
2023/08/21 06:40:29;;;;;;;89.27;46.73;;;22.00;99.50;;;;;;5041022;28;20462;-82
2023/08/21 06:42:55;;;;;;;87.43;40.57;;;22.00;99.50;;;;;;5040084;28;20408;-82
2023/08/21 06:45:20;;;;;;;85.67;41.53;;;22.00;98.20;;;;;;5021251;28;20197;-82
2023/08/21 06:47:47;;;;;;;89.23;40.80;;;22.00;98.30;;;;;;5040656;28;20166;-82
2023/08/21 06:50:12;;;;;;;88.37;40.40;;;22.00;98.80;;;;;;5024335;28;20186;-82
2023/08/21 06:52:39;;;;;;;86.63;33.53;;;22.10;99.30;;;;;;5040543;28;21001;-82
2023/08/21 06:55:07;;;;;;;84.57;35.00;;;22.10;96.90;;;;;;5038552;28;20169;-82
2023/08/21 06:57:33;;;;;;;84.43;34.27;;;22.20;96.70;;;;;;5039549;28;20430;-83
2023/08/21 07:00:02;;;;;;;85.37;32.67;;;22.20;96.70;;;;;;5040095;28;20487;-82
2023/08/21 07:02:28;;;;;;;83.63;31.87;;;22.30;95.70;;;;;;5038973;28;20664;-81
2023/08/21 07:04:54;;;;;;;90.20;36.53;;;22.30;94.40;;;;;;5039497;28;20444;-82
2023/08/21 07:07:19;;;;;;;86.23;40.23;;;22.30;95.40;;;;;;5108373;22;20225;-81
2023/08/21 07:09:45;;;;;;;90.93;36.30;;;22.20;97.50;;;;;;5037082;28;20557;-81
2023/08/21 07:12:11;;;;;;;83.43;33.77;;;22.30;97.70;;;;;;5037165;28;20533;-81
2023/08/21 07:14:36;;;;;;;89.43;36.10;;;22.30;95.70;;;;;;5037171;28;20257;-81
2023/08/21 07:17:02;;;;;;;87.70;38.00;;;22.30;98.20;;;;;;5037140;28;20584;-81
2023/08/21 07:19:27;;;;;;;89.50;33.27;;;22.30;97.50;;;;;;5037252;28;20181;-80
2023/08/21 07:21:53;;;;;;;91.23;44.53;;;22.30;98.90;;;;;;5037558;28;20675;-81
2023/08/21 07:24:19;;;;;;;91.57;46.07;;;22.30;99.60;;;;;;5037866;28;20166;-81
2023/08/21 07:26:44;;;;;;;85.07;36.07;;;22.40;99.10;;;;;;5038223;28;20169;-81
2023/08/21 07:29:10;;;;;;;86.50;39.87;;;22.30;98.60;;;;;;5037575;28;20182;-81
2023/08/21 07:31:36;;;;;;;90.00;41.60;;;22.40;99.90;;;;;;5039066;28;20716;-81
2023/08/21 07:34:01;;;;;;;87.77;41.90;;;22.40;99.30;;;;;;5040758;28;20157;-80
2023/08/21 07:36:27;;;;;;;84.57;36.03;;;22.40;98.90;;;;;;5040870;28;20169;-81
2023/08/21 07:38:53;;;;;;;88.87;44.03;;;22.50;99.30;;;;;;5040152;28;20640;-82
2023/08/21 07:41:18;;;;;;;85.20;37.30;;;22.50;99.90;;;;;;5040732;28;20185;-82
2023/08/21 07:43:44;;;;;;;88.97;45.87;;;22.50;99.90;;;;;;5040375;28;20249;-82
2023/08/21 07:46:18;;;;;;;89.20;45.90;;;22.60;99.90;;;;;;5040470;28;20181;-82
2023/08/21 07:48:45;;;;;;;89.37;37.67;;;22.60;99.90;;;;;;5040106;28;20145;-82
2023/08/21 07:51:11;;;;;;;86.70;32.13;;;22.70;99.90;;;;;;5022380;28;20411;-82
2023/08/21 07:53:37;;;;;;;85.20;33.20;;;22.70;99.90;;;;;;5038791;28;20449;-80
2023/08/21 07:56:04;;;;;;;84.17;32.37;;;22.70;99.90;;;;;;5037820;28;20197;-80
2023/08/21 07:58:30;;;;;;;84.73;30.90;;;22.70;99.90;;;;;;5037663;28;20424;-82
2023/08/21 08:01:00;;;;;;;87.70;31.20;;;22.80;99.90;;;;;;5037505;28;20428;-82
2023/08/21 08:03:25;;;;;;;89.27;35.50;;;22.90;99.90;;;;;;5037743;28;20423;-82
2023/08/21 08:05:51;;;;;;;85.90;29.57;;;22.90;99.90;;;;;;5037850;28;20530;-82
2023/08/21 08:08:17;;;;;;;85.70;30.07;;;23.00;97.20;;;;;;5037995;28;20154;-82
2023/08/21 08:10:44;;;;;;;83.60;29.17;;;23.00;96.70;;;;;;5037575;28;20219;-82
2023/08/21 08:13:09;;;;;;;83.87;32.10;;;23.00;97.90;;;;;;5037915;28;20919;-82
2023/08/21 08:15:35;;;;;;;85.77;32.53;;;23.00;99.30;;;;;;5039811;28;20415;-82
2023/08/21 08:18:02;;;;;;;88.57;30.70;;;23.00;99.90;;;;;;5021886;28;20161;-82
2023/08/21 08:20:28;;;;;;;83.93;29.00;;;23.10;97.60;;;;;;5039567;28;20185;-82
2023/08/21 08:22:54;;;;;;;88.43;30.33;;;23.20;97.50;;;;;;5040657;28;20394;-82
2023/08/21 08:25:19;;;;;;;84.10;24.70;;;23.30;96.10;;;;;;5039118;28;20645;-82
2023/08/21 08:27:45;;;;;;;90.23;27.30;;;23.30;95.90;;;;;;5039004;28;20165;-82
2023/08/21 08:30:11;;;;;;;83.60;25.30;;;23.30;94.90;;;;;;5039381;28;20182;-82
2023/08/21 08:32:37;;;;;;;85.30;17.93;;;23.40;93.70;;;;;;5038591;28;20630;-82
2023/08/21 08:35:03;;;;;;;81.13;18.13;;;23.50;90.00;;;;;;5038475;28;20470;-82
2023/08/21 08:37:28;;;;;;;80.30;19.43;;;23.50;91.00;;;;;;5020969;28;20196;-82
2023/08/21 08:39:54;;;;;;;84.53;17.77;;;23.50;90.80;;;;;;5037987;28;20522;-82
2023/08/21 08:42:20;;;;;;;85.20;18.37;;;23.60;88.60;;;;;;5037899;28;20157;-82
2023/08/21 08:44:47;;;;;;;91.40;21.17;;;23.60;86.00;;;;;;5037601;28;20272;-82
2023/08/21 08:47:14;;;;;;;80.70;16.70;;;23.60;90.90;;;;;;5037099;28;20630;-82
2023/08/21 08:50:03;;;;;;;84.90;18.57;;;23.70;84.10;;;;;;5020022;28;20854;-82
2023/08/21 08:52:30;;;;;;;83.07;16.67;;;23.70;89.80;;;;;;5020182;28;20927;-80
2023/08/21 08:54:58;;;;;;;83.13;18.10;;;23.80;86.30;;;;;;5037838;28;20439;-79
2023/08/21 08:57:24;;;;;;;80.43;14.60;;;23.80;82.50;;;;;;5037532;28;20950;-79
2023/08/21 08:59:49;;;;;;;82.50;17.47;;;23.80;74.20;;;;;;5037415;28;20420;-80
2023/08/21 09:02:16;;;;;;;79.73;15.17;;;23.80;71.30;;;;;;5037310;28;20169;-79
2023/08/21 09:04:41;;;;;;;83.67;17.43;;;23.90;78.80;;;;;;5037104;28;20228;-79
2023/08/21 09:07:08;;;;;;;87.60;17.97;;;23.90;81.30;;;;;;5036808;28;20432;-80
2023/08/21 09:09:44;;;;;;;82.23;19.67;;;24.00;78.30;;;;;;5038737;28;20186;-80
2023/08/21 09:12:14;;;;;;;82.40;16.73;;;24.10;73.20;;;;;;5038790;28;20384;-78
2023/08/21 09:14:40;;;;;;;81.60;16.00;;;24.20;74.30;;;;;;5038151;28;20435;-79
2023/08/21 09:17:06;;;;;;;86.20;18.17;;;24.20;60.10;;;;;;5038306;28;20503;-78
2023/08/21 09:19:32;;;;;;;83.30;18.33;;;24.20;58.40;;;;;;5038454;28;20428;-79
2023/08/21 09:21:58;;;;;;;78.67;17.17;;;24.20;64.10;;;;;;5038607;28;20454;-79
2023/08/21 09:24:23;;;;;;;81.07;18.73;;;24.20;60.30;;;;;;5020722;28;20170;-79
2023/08/21 09:26:50;;;;;;;79.03;17.23;;;24.30;63.40;;;;;;5020952;28;20166;-79
2023/08/21 09:29:16;;;;;;;83.17;17.60;;;24.40;61.70;;;;;;5020915;28;20186;-79
2023/08/21 09:31:45;;;;;;;79.30;17.40;;;24.40;60.40;;;;;;5037458;28;20412;-79
2023/08/21 09:34:11;;;;;;;81.57;17.20;;;24.60;74.60;;;;;;5037243;28;20404;-79
2023/08/21 09:36:39;;;;;;;82.00;20.70;;;24.70;59.30;;;;;;5020298;28;20457;-79
2023/08/21 09:39:06;;;;;;;83.47;18.37;;;24.80;47.20;;;;;;5039324;28;20777;-79
2023/08/21 09:41:32;;;;;;;79.00;20.03;;;24.80;47.60;;;;;;5037222;28;20437;-78
2023/08/21 09:44:01;;;;;;;81.60;19.23;;;24.90;44.20;;;;;;5019023;28;20435;-79
2023/08/21 09:46:27;;;;;;;80.63;19.20;;;25.00;43.60;;;;;;5019080;28;20217;-79
2023/08/21 09:48:54;;;;;;;85.87;28.20;;;25.20;49.10;;;;;;5038873;28;20397;-79
2023/08/21 09:51:20;;;;;;;85.57;29.93;;;25.30;35.90;;;;;;5037655;28;20397;-79
2023/08/21 09:53:49;;;;;;;87.20;29.80;;;25.40;27.50;;;;;;5037599;28;20760;-79
2023/08/21 09:56:16;;;;;;;86.70;25.57;;;25.40;25.40;;;;;;5038287;28;20403;-81
2023/08/21 09:58:43;;;;;;;83.77;18.60;;;25.60;16.20;;;;;;5037138;28;20905;-80
2023/08/21 10:01:14;;;;;;;82.47;21.67;;;25.70;17.20;;;;;;5037267;28;20456;-78
2023/08/21 10:03:47;;;;;;;81.77;15.50;;;25.90;20.30;;;;;;5036772;28;20391;-79
2023/08/21 10:06:18;;;;;;;86.63;13.43;;;25.90;10.70;;;;;;5036736;28;20477;-79
2023/08/21 10:08:45;;;;;;;79.50;13.87;;;26.00;12.10;;;;;;5038734;28;20379;-79
2023/08/21 10:11:11;;;;;;;79.47;11.80;;;26.00;7.80;;;;;;5038460;28;20410;-79
2023/08/21 10:13:38;;;;;;;80.87;12.10;;;26.00;6.60;;;;;;5037547;28;20407;-79
2023/08/21 10:16:05;;;;;;;80.57;10.80;;;26.00;5.40;;;;;;5037648;28;20783;-79
2023/08/21 10:18:33;;;;;;;76.93;12.10;;;26.10;6.10;;;;;;5035781;28;20413;-78
2023/08/21 10:21:25;;;;;;;79.63;10.73;;;26.10;7.80;;;;;;5035466;28;20427;-78
2023/08/21 10:23:54;;;;;;;76.20;9.07;;;26.30;1.00;;;;;;5027598;28;20414;-79
2023/08/21 10:26:21;;;;;;;77.37;10.13;;;26.50;2.70;;;;;;5035979;28;20539;-78
2023/08/21 10:28:59;;;;;;;79.17;10.83;;;26.70;1.00;;;;;;5037233;28;20805;-78
2023/08/21 10:31:40;;;;;;;77.50;8.33;;;26.90;1.00;;;;;;5018632;28;20407;-78
2023/08/21 10:34:08;;;;;;;83.60;11.87;;;27.10;1.00;;;;;;5038828;28;20385;-79
2023/08/21 10:36:42;;;;;;;79.20;14.33;;;27.40;1.00;;;;;;5021467;28;20499;-79
2023/08/21 10:39:20;;;;;;;77.37;13.87;;;27.60;1.00;;;;;;5036997;28;20423;-79
2023/08/21 10:42:08;;;;;;;81.77;15.30;;;27.90;1.00;;;;;;5037503;28;20440;-80
2023/08/21 10:44:34;;;;;;;80.17;13.33;;;27.90;1.00;;;;;;5018915;28;20496;-80
2023/08/21 10:47:30;;;;;;;84.57;13.40;;;27.90;1.00;;;;;;5019265;28;20459;-80
2023/08/21 10:50:04;;;;;;;82.77;15.50;;;28.00;1.00;;;;;;5018423;28;20186;-80
2023/08/21 10:52:41;;;;;;;80.97;15.90;;;28.20;1.00;;;;;;5037358;28;20389;-81
2023/08/21 10:55:11;;;;;;;85.63;15.20;;;28.50;1.00;;;;;;5036999;28;20384;-81
2023/08/21 10:57:37;;;;;;;79.47;12.50;;;28.70;1.00;;;;;;5036991;28;20417;-80
2023/08/21 11:00:09;;;;;;;80.67;12.17;;;28.70;1.00;;;;;;5035942;28;20450;-81
2023/08/21 11:02:36;;;;;;;79.17;11.30;;;28.60;1.00;;;;;;5037134;28;20876;-79
2023/08/21 11:05:03;;;;;;;80.67;11.40;;;28.60;1.00;;;;;;5037210;28;20958;-78
2023/08/21 11:07:29;;;;;;;77.37;9.70;;;28.70;1.00;;;;;;5039036;28;20447;-79
2023/08/21 11:09:56;;;;;;;82.17;12.13;;;28.80;1.00;;;;;;5038982;28;20788;-79
2023/08/21 11:12:23;;;;;;;79.20;10.07;;;28.70;1.00;;;;;;5039082;28;20404;-79
2023/08/21 11:14:49;;;;;;;83.83;9.63;;;28.70;1.00;;;;;;5038696;28;20432;-78
2023/08/21 11:17:15;;;;;;;80.20;10.40;;;28.90;1.00;;;;;;5038763;28;20419;-78
2023/08/21 11:19:42;;;;;;;80.73;10.27;;;29.10;1.00;;;;;;5038762;28;20431;-78
2023/08/21 11:22:08;;;;;;;78.70;10.30;;;29.10;1.00;;;;;;5020957;28;20427;-78
2023/08/21 11:24:36;;;;;;;78.60;9.50;;;29.20;1.00;;;;;;5038253;28;20495;-78
2023/08/21 11:27:06;;;;;;;79.30;10.23;;;29.50;1.00;;;;;;5039384;28;20815;-79
2023/08/21 11:30:01;;;;;;;78.37;11.77;;;29.60;1.00;;;;;;5039299;28;20426;-78
2023/08/21 11:32:27;;;;;;;80.27;13.20;;;29.80;1.00;;;;;;5023768;28;20411;-79
2023/08/21 11:34:57;;;;;;;84.60;15.80;;;29.80;1.00;;;;;;5038651;28;20462;-78
2023/08/21 11:37:24;;;;;;;81.20;16.80;;;29.90;1.00;;;;;;5038898;28;20165;-79
2023/08/21 11:39:52;;;;;;;77.20;17.37;;;29.90;1.00;;;;;;5038425;28;20423;-78
2023/08/21 11:42:19;;;;;;;80.63;19.10;;;29.80;1.00;;;;;;5038750;28;20396;-79
2023/08/21 11:44:46;;;;;;;81.83;17.30;;;30.00;1.00;;;;;;5038125;28;20435;-79
2023/08/21 11:47:13;;;;;;;82.47;20.87;;;30.10;1.00;;;;;;5038591;28;20400;-78
2023/08/21 11:49:41;;;;;;;82.93;17.07;;;30.20;1.00;;;;;;5037757;28;20427;-79
2023/08/21 11:52:07;;;;;;;82.07;13.67;;;30.20;1.00;;;;;;5037948;28;20413;-78
2023/08/21 11:54:35;;;;;;;80.87;14.20;;;30.10;1.00;;;;;;5037964;28;20401;-79
2023/08/21 11:57:05;;;;;;;84.73;13.30;;;30.00;1.00;;;;;;5037990;28;20188;-79
2023/08/21 11:59:30;;;;;;;79.37;11.67;;;29.90;1.00;;;;;;5038120;28;20424;-78
2023/08/21 12:01:56;;;;;;;83.67;20.37;;;29.90;1.00;;;;;;5038240;28;20397;-79
2023/08/21 12:04:21;;;;;;;79.87;11.07;;;29.90;1.00;;;;;;5038065;28;20188;-79
2023/08/21 12:06:47;;;;;;;78.37;11.50;;;30.00;1.00;;;;;;5037834;28;20177;-79
2023/08/21 12:09:13;;;;;;;79.80;10.13;;;30.10;1.00;;;;;;5038599;28;20232;-79
2023/08/21 12:11:38;;;;;;;79.37;11.50;;;29.90;1.00;;;;;;5037903;28;20157;-79
2023/08/21 12:14:06;;;;;;;80.70;10.97;;;29.60;1.00;;;;;;5037549;28;20166;-78
2023/08/21 12:16:31;;;;;;;79.10;13.67;;;29.50;1.00;;;;;;5036254;28;20157;-78
2023/08/21 12:18:57;;;;;;;78.07;11.70;;;29.40;1.00;;;;;;5037088;28;20465;-78
2023/08/21 12:21:26;;;;;;;82.07;18.03;;;29.30;1.00;;;;;;5018862;28;20169;-78
2023/08/21 12:23:51;;;;;;;85.07;14.57;;;29.30;1.00;;;;;;5036900;28;20579;-78
2023/08/21 12:26:23;;;;;;;80.47;10.50;;;29.30;1.00;;;;;;5036954;28;20440;-78
2023/08/21 12:28:49;;;;;;;82.97;11.47;;;29.20;1.00;;;;;;5037896;28;20602;-78